sensor_id;sensor_type;location;lat;lon;timestamp;P1;durP1;ratioP1;P2;durP2;ratioP2
55497;SDS011;41357;52.806;18.268;2023-12-04T00:01:47;17.48;;;7.82;;
55497;SDS011;41357;52.806;18.268;2023-12-04T00:04:13;9.55;;;4.70;;
55497;SDS011;41357;52.806;18.268;2023-12-04T00:06:42;18.55;;;6.85;;
55497;SDS011;41357;52.806;18.268;2023-12-04T00:09:09;19.92;;;7.43;;
55497;SDS011;41357;52.806;18.268;2023-12-04T00:11:35;16.20;;;7.03;;
55497;SDS011;41357;52.806;18.268;2023-12-04T00:14:01;14.20;;;5.93;;
55497;SDS011;41357;52.806;18.268;2023-12-04T00:16:27;15.18;;;5.25;;
55497;SDS011;41357;52.806;18.268;2023-12-04T00:18:53;11.75;;;5.38;;
55497;SDS011;41357;52.806;18.268;2023-12-04T00:21:19;14.23;;;7.07;;
55497;SDS011;41357;52.806;18.268;2023-12-04T00:23:46;10.43;;;6.10;;
55497;SDS011;41357;52.806;18.268;2023-12-04T00:26:12;16.75;;;8.32;;
55497;SDS011;41357;52.806;18.268;2023-12-04T00:28:38;13.90;;;6.55;;
55497;SDS011;41357;52.806;18.268;2023-12-04T00:31:05;15.13;;;6.45;;
55497;SDS011;41357;52.806;18.268;2023-12-04T00:33:31;16.00;;;4.97;;
55497;SDS011;41357;52.806;18.268;2023-12-04T00:35:57;11.85;;;6.45;;
55497;SDS011;41357;52.806;18.268;2023-12-04T00:38:23;18.90;;;6.97;;
55497;SDS011;41357;52.806;18.268;2023-12-04T00:40:49;12.70;;;6.63;;
55497;SDS011;41357;52.806;18.268;2023-12-04T00:43:16;11.88;;;6.22;;
55497;SDS011;41357;52.806;18.268;2023-12-04T00:45:42;12.00;;;5.50;;
55497;SDS011;41357;52.806;18.268;2023-12-04T00:48:08;12.70;;;5.82;;
55497;SDS011;41357;52.806;18.268;2023-12-04T00:50:34;18.05;;;6.68;;
55497;SDS011;41357;52.806;18.268;2023-12-04T00:53:00;19.02;;;7.97;;
55497;SDS011;41357;52.806;18.268;2023-12-04T00:55:27;13.05;;;4.68;;
55497;SDS011;41357;52.806;18.268;2023-12-04T00:57:53;14.77;;;6.75;;
55497;SDS011;41357;52.806;18.268;2023-12-04T01:00:19;16.77;;;8.15;;
55497;SDS011;41357;52.806;18.268;2023-12-04T01:02:45;13.27;;;6.53;;
55497;SDS011;41357;52.806;18.268;2023-12-04T01:05:11;14.77;;;6.38;;
55497;SDS011;41357;52.806;18.268;2023-12-04T01:07:38;14.80;;;5.70;;
55497;SDS011;41357;52.806;18.268;2023-12-04T01:10:04;16.92;;;6.45;;
55497;SDS011;41357;52.806;18.268;2023-12-04T01:12:30;15.00;;;6.53;;
55497;SDS011;41357;52.806;18.268;2023-12-04T01:14:56;17.63;;;6.97;;
55497;SDS011;41357;52.806;18.268;2023-12-04T01:17:22;22.25;;;8.07;;
55497;SDS011;41357;52.806;18.268;2023-12-04T01:19:49;19.05;;;8.15;;
55497;SDS011;41357;52.806;18.268;2023-12-04T01:22:15;9.38;;;4.78;;
55497;SDS011;41357;52.806;18.268;2023-12-04T01:24:41;16.90;;;7.88;;
55497;SDS011;41357;52.806;18.268;2023-12-04T01:27:08;15.45;;;7.90;;
55497;SDS011;41357;52.806;18.268;2023-12-04T01:29:34;13.00;;;5.60;;
55497;SDS011;41357;52.806;18.268;2023-12-04T01:32:00;14.13;;;5.20;;
55497;SDS011;41357;52.806;18.268;2023-12-04T01:34:26;14.63;;;6.07;;
55497;SDS011;41357;52.806;18.268;2023-12-04T01:36:52;18.02;;;7.03;;
55497;SDS011;41357;52.806;18.268;2023-12-04T01:39:19;17.55;;;7.28;;
55497;SDS011;41357;52.806;18.268;2023-12-04T01:41:45;18.63;;;7.35;;
55497;SDS011;41357;52.806;18.268;2023-12-04T01:44:11;15.77;;;6.38;;
55497;SDS011;41357;52.806;18.268;2023-12-04T01:46:37;17.50;;;7.53;;
55497;SDS011;41357;52.806;18.268;2023-12-04T01:49:03;20.63;;;7.10;;
55497;SDS011;41357;52.806;18.268;2023-12-04T01:51:30;14.32;;;6.03;;
55497;SDS011;41357;52.806;18.268;2023-12-04T01:53:58;25.35;;;7.25;;
55497;SDS011;41357;52.806;18.268;2023-12-04T01:56:25;14.98;;;7.20;;
55497;SDS011;41357;52.806;18.268;2023-12-04T01:58:51;18.75;;;7.93;;
55497;SDS011;41357;52.806;18.268;2023-12-04T02:01:17;23.20;;;6.93;;
55497;SDS011;41357;52.806;18.268;2023-12-04T02:03:45;15.48;;;7.88;;
55497;SDS011;41357;52.806;18.268;2023-12-04T02:06:11;18.98;;;8.23;;
55497;SDS011;41357;52.806;18.268;2023-12-04T02:08:40;24.85;;;9.95;;
55497;SDS011;41357;52.806;18.268;2023-12-04T02:11:07;19.75;;;8.55;;
55497;SDS011;41357;52.806;18.268;2023-12-04T02:13:33;17.27;;;8.50;;
55497;SDS011;41357;52.806;18.268;2023-12-04T02:16:01;24.05;;;10.15;;
55497;SDS011;41357;52.806;18.268;2023-12-04T02:18:31;16.85;;;7.63;;
55497;SDS011;41357;52.806;18.268;2023-12-04T02:20:57;19.33;;;9.05;;
55497;SDS011;41357;52.806;18.268;2023-12-04T02:23:23;19.83;;;8.07;;
55497;SDS011;41357;52.806;18.268;2023-12-04T02:25:50;14.02;;;5.40;;
55497;SDS011;41357;52.806;18.268;2023-12-04T02:28:17;27.25;;;9.07;;
55497;SDS011;41357;52.806;18.268;2023-12-04T02:30:44;23.25;;;11.43;;
55497;SDS011;41357;52.806;18.268;2023-12-04T02:33:11;18.17;;;9.65;;
55497;SDS011;41357;52.806;18.268;2023-12-04T02:35:39;22.40;;;8.13;;
55497;SDS011;41357;52.806;18.268;2023-12-04T02:38:06;28.33;;;11.07;;
55497;SDS011;41357;52.806;18.268;2023-12-04T02:40:32;12.45;;;5.75;;
55497;SDS011;41357;52.806;18.268;2023-12-04T02:42:59;20.55;;;8.98;;
55497;SDS011;41357;52.806;18.268;2023-12-04T02:45:25;17.50;;;8.52;;
55497;SDS011;41357;52.806;18.268;2023-12-04T02:47:51;31.45;;;10.57;;
55497;SDS011;41357;52.806;18.268;2023-12-04T02:50:17;13.43;;;7.03;;
55497;SDS011;41357;52.806;18.268;2023-12-04T02:52:43;18.02;;;7.65;;
55497;SDS011;41357;52.806;18.268;2023-12-04T02:55:10;20.63;;;8.20;;
55497;SDS011;41357;52.806;18.268;2023-12-04T02:57:36;17.58;;;9.70;;
55497;SDS011;41357;52.806;18.268;2023-12-04T03:00:02;17.83;;;8.80;;
55497;SDS011;41357;52.806;18.268;2023-12-04T03:02:29;21.40;;;9.40;;
55497;SDS011;41357;52.806;18.268;2023-12-04T03:04:55;19.83;;;8.95;;
55497;SDS011;41357;52.806;18.268;2023-12-04T03:07:21;20.90;;;8.38;;
55497;SDS011;41357;52.806;18.268;2023-12-04T03:09:49;24.88;;;11.38;;
55497;SDS011;41357;52.806;18.268;2023-12-04T03:12:18;12.80;;;6.32;;
55497;SDS011;41357;52.806;18.268;2023-12-04T03:14:44;24.75;;;9.75;;
55497;SDS011;41357;52.806;18.268;2023-12-04T03:17:10;24.48;;;9.60;;
55497;SDS011;41357;52.806;18.268;2023-12-04T03:19:37;23.83;;;10.15;;
55497;SDS011;41357;52.806;18.268;2023-12-04T03:22:03;21.58;;;9.82;;
55497;SDS011;41357;52.806;18.268;2023-12-04T03:24:29;26.05;;;8.93;;
55497;SDS011;41357;52.806;18.268;2023-12-04T03:26:55;18.70;;;8.52;;
55497;SDS011;41357;52.806;18.268;2023-12-04T03:29:21;20.88;;;8.18;;
55497;SDS011;41357;52.806;18.268;2023-12-04T03:31:47;17.45;;;8.93;;
55497;SDS011;41357;52.806;18.268;2023-12-04T03:34:13;18.48;;;6.20;;
55497;SDS011;41357;52.806;18.268;2023-12-04T03:36:40;19.27;;;9.13;;
55497;SDS011;41357;52.806;18.268;2023-12-04T03:39:06;16.38;;;9.07;;
55497;SDS011;41357;52.806;18.268;2023-12-04T03:41:32;19.92;;;9.18;;
55497;SDS011;41357;52.806;18.268;2023-12-04T03:43:58;20.52;;;8.20;;
55497;SDS011;41357;52.806;18.268;2023-12-04T03:46:24;25.02;;;7.72;;
55497;SDS011;41357;52.806;18.268;2023-12-04T03:48:51;18.27;;;7.63;;
55497;SDS011;41357;52.806;18.268;2023-12-04T03:51:17;22.35;;;7.82;;
55497;SDS011;41357;52.806;18.268;2023-12-04T03:53:43;25.65;;;8.65;;
55497;SDS011;41357;52.806;18.268;2023-12-04T03:56:10;14.38;;;6.18;;
55497;SDS011;41357;52.806;18.268;2023-12-04T03:58:37;26.02;;;8.80;;
55497;SDS011;41357;52.806;18.268;2023-12-04T04:01:05;23.95;;;11.27;;
55497;SDS011;41357;52.806;18.268;2023-12-04T04:03:31;19.33;;;8.13;;
55497;SDS011;41357;52.806;18.268;2023-12-04T04:05:57;16.27;;;7.72;;
55497;SDS011;41357;52.806;18.268;2023-12-04T04:08:23;23.52;;;9.63;;
55497;SDS011;41357;52.806;18.268;2023-12-04T04:10:49;15.57;;;7.97;;
55497;SDS011;41357;52.806;18.268;2023-12-04T04:13:15;21.10;;;9.65;;
55497;SDS011;41357;52.806;18.268;2023-12-04T04:15:42;19.67;;;8.20;;
55497;SDS011;41357;52.806;18.268;2023-12-04T04:18:08;19.92;;;9.90;;
55497;SDS011;41357;52.806;18.268;2023-12-04T04:20:34;14.80;;;8.73;;
55497;SDS011;41357;52.806;18.268;2023-12-04T04:23:01;18.40;;;8.82;;
55497;SDS011;41357;52.806;18.268;2023-12-04T04:25:27;16.55;;;8.20;;
55497;SDS011;41357;52.806;18.268;2023-12-04T04:27:53;14.57;;;7.13;;
55497;SDS011;41357;52.806;18.268;2023-12-04T04:30:19;21.20;;;9.02;;
55497;SDS011;41357;52.806;18.268;2023-12-04T04:32:45;19.92;;;8.35;;
55497;SDS011;41357;52.806;18.268;2023-12-04T04:35:11;18.35;;;7.43;;
55497;SDS011;41357;52.806;18.268;2023-12-04T04:37:38;18.63;;;8.13;;
55497;SDS011;41357;52.806;18.268;2023-12-04T04:40:04;13.82;;;6.85;;
55497;SDS011;41357;52.806;18.268;2023-12-04T04:42:30;17.20;;;7.10;;
55497;SDS011;41357;52.806;18.268;2023-12-04T04:44:57;18.13;;;7.57;;
55497;SDS011;41357;52.806;18.268;2023-12-04T04:47:23;17.73;;;8.45;;
55497;SDS011;41357;52.806;18.268;2023-12-04T04:49:49;20.00;;;9.55;;
55497;SDS011;41357;52.806;18.268;2023-12-04T04:52:15;19.35;;;9.20;;
55497;SDS011;41357;52.806;18.268;2023-12-04T04:54:41;14.85;;;6.50;;
55497;SDS011;41357;52.806;18.268;2023-12-04T04:57:08;23.55;;;9.55;;
55497;SDS011;41357;52.806;18.268;2023-12-04T04:59:34;17.25;;;6.90;;
55497;SDS011;41357;52.806;18.268;2023-12-04T05:02:00;30.13;;;9.05;;
55497;SDS011;41357;52.806;18.268;2023-12-04T05:04:26;19.73;;;8.00;;
55497;SDS011;41357;52.806;18.268;2023-12-04T05:06:52;20.77;;;8.70;;
55497;SDS011;41357;52.806;18.268;2023-12-04T05:09:18;14.38;;;7.50;;
55497;SDS011;41357;52.806;18.268;2023-12-04T05:11:45;19.95;;;8.30;;
55497;SDS011;41357;52.806;18.268;2023-12-04T05:14:11;20.70;;;8.63;;
55497;SDS011;41357;52.806;18.268;2023-12-04T05:16:37;25.67;;;9.25;;
55497;SDS011;41357;52.806;18.268;2023-12-04T05:19:03;24.98;;;10.13;;
55497;SDS011;41357;52.806;18.268;2023-12-04T05:21:29;21.23;;;8.05;;
55497;SDS011;41357;52.806;18.268;2023-12-04T05:23:55;12.85;;;6.78;;
55497;SDS011;41357;52.806;18.268;2023-12-04T05:26:21;23.90;;;9.20;;
55497;SDS011;41357;52.806;18.268;2023-12-04T05:28:47;33.10;;;10.27;;
55497;SDS011;41357;52.806;18.268;2023-12-04T05:31:14;19.98;;;9.38;;
55497;SDS011;41357;52.806;18.268;2023-12-04T05:33:40;18.27;;;9.13;;
55497;SDS011;41357;52.806;18.268;2023-12-04T05:36:06;18.83;;;8.43;;
55497;SDS011;41357;52.806;18.268;2023-12-04T05:38:32;25.42;;;9.50;;
55497;SDS011;41357;52.806;18.268;2023-12-04T05:40:58;18.65;;;8.18;;
55497;SDS011;41357;52.806;18.268;2023-12-04T05:43:24;18.98;;;7.78;;
55497;SDS011;41357;52.806;18.268;2023-12-04T05:45:51;17.58;;;7.75;;
55497;SDS011;41357;52.806;18.268;2023-12-04T05:48:17;19.98;;;7.93;;
55497;SDS011;41357;52.806;18.268;2023-12-04T05:50:43;19.38;;;9.18;;
55497;SDS011;41357;52.806;18.268;2023-12-04T05:53:10;12.88;;;5.63;;
55497;SDS011;41357;52.806;18.268;2023-12-04T05:55:37;13.10;;;5.95;;
55497;SDS011;41357;52.806;18.268;2023-12-04T05:58:03;16.05;;;7.32;;
55497;SDS011;41357;52.806;18.268;2023-12-04T06:00:29;18.80;;;7.28;;
55497;SDS011;41357;52.806;18.268;2023-12-04T06:02:55;13.10;;;6.28;;
55497;SDS011;41357;52.806;18.268;2023-12-04T06:05:21;16.88;;;7.32;;
55497;SDS011;41357;52.806;18.268;2023-12-04T06:07:48;18.95;;;7.40;;
55497;SDS011;41357;52.806;18.268;2023-12-04T06:10:14;18.70;;;8.63;;
55497;SDS011;41357;52.806;18.268;2023-12-04T06:12:40;19.63;;;9.15;;
55497;SDS011;41357;52.806;18.268;2023-12-04T06:15:07;13.73;;;7.88;;
55497;SDS011;41357;52.806;18.268;2023-12-04T06:17:33;23.13;;;10.15;;
55497;SDS011;41357;52.806;18.268;2023-12-04T06:20:00;17.70;;;7.85;;
55497;SDS011;41357;52.806;18.268;2023-12-04T06:22:26;16.80;;;8.93;;
55497;SDS011;41357;52.806;18.268;2023-12-04T06:24:52;14.07;;;6.63;;
55497;SDS011;41357;52.806;18.268;2023-12-04T06:27:18;18.80;;;8.43;;
55497;SDS011;41357;52.806;18.268;2023-12-04T06:29:45;27.48;;;9.48;;
55497;SDS011;41357;52.806;18.268;2023-12-04T06:32:12;13.07;;;7.07;;
55497;SDS011;41357;52.806;18.268;2023-12-04T06:34:39;24.63;;;9.55;;
55497;SDS011;41357;52.806;18.268;2023-12-04T06:37:12;33.60;;;11.68;;
55497;SDS011;41357;52.806;18.268;2023-12-04T06:39:39;24.10;;;10.75;;
55497;SDS011;41357;52.806;18.268;2023-12-04T06:42:08;19.13;;;8.80;;
55497;SDS011;41357;52.806;18.268;2023-12-04T06:44:34;27.33;;;9.38;;
55497;SDS011;41357;52.806;18.268;2023-12-04T06:47:01;20.10;;;9.90;;
55497;SDS011;41357;52.806;18.268;2023-12-04T06:49:31;26.55;;;9.10;;
55497;SDS011;41357;52.806;18.268;2023-12-04T06:51:57;25.20;;;10.88;;
55497;SDS011;41357;52.806;18.268;2023-12-04T06:54:23;26.58;;;12.05;;
55497;SDS011;41357;52.806;18.268;2023-12-04T06:56:50;24.45;;;10.55;;
55497;SDS011;41357;52.806;18.268;2023-12-04T06:59:17;32.00;;;14.45;;
55497;SDS011;41357;52.806;18.268;2023-12-04T07:01:43;23.73;;;10.38;;
55497;SDS011;41357;52.806;18.268;2023-12-04T07:04:09;26.60;;;10.70;;
55497;SDS011;41357;52.806;18.268;2023-12-04T07:06:36;27.05;;;10.43;;
55497;SDS011;41357;52.806;18.268;2023-12-04T07:09:02;24.52;;;9.57;;
55497;SDS011;41357;52.806;18.268;2023-12-04T07:11:29;31.55;;;11.07;;
55497;SDS011;41357;52.806;18.268;2023-12-04T07:13:55;36.05;;;15.30;;
55497;SDS011;41357;52.806;18.268;2023-12-04T07:16:21;30.80;;;13.35;;
55497;SDS011;41357;52.806;18.268;2023-12-04T07:18:47;28.40;;;12.68;;
55497;SDS011;41357;52.806;18.268;2023-12-04T07:21:13;31.42;;;11.20;;
55497;SDS011;41357;52.806;18.268;2023-12-04T07:23:39;32.95;;;11.93;;
55497;SDS011;41357;52.806;18.268;2023-12-04T07:26:06;35.60;;;12.82;;
55497;SDS011;41357;52.806;18.268;2023-12-04T07:28:32;39.40;;;13.32;;
55497;SDS011;41357;52.806;18.268;2023-12-04T07:31:00;43.88;;;17.10;;
55497;SDS011;41357;52.806;18.268;2023-12-04T07:33:29;33.40;;;13.60;;
55497;SDS011;41357;52.806;18.268;2023-12-04T07:35:55;30.20;;;12.98;;
55497;SDS011;41357;52.806;18.268;2023-12-04T07:38:21;30.50;;;12.27;;
55497;SDS011;41357;52.806;18.268;2023-12-04T07:40:48;29.67;;;10.18;;
55497;SDS011;41357;52.806;18.268;2023-12-04T07:43:14;29.77;;;12.35;;
55497;SDS011;41357;52.806;18.268;2023-12-04T07:45:40;29.80;;;11.93;;
55497;SDS011;41357;52.806;18.268;2023-12-04T07:48:07;31.65;;;12.82;;
55497;SDS011;41357;52.806;18.268;2023-12-04T07:50:33;43.10;;;16.42;;
55497;SDS011;41357;52.806;18.268;2023-12-04T07:53:00;34.17;;;13.13;;
55497;SDS011;41357;52.806;18.268;2023-12-04T07:55:26;33.03;;;13.15;;
55497;SDS011;41357;52.806;18.268;2023-12-04T07:57:52;34.60;;;15.15;;
55497;SDS011;41357;52.806;18.268;2023-12-04T08:00:18;28.58;;;13.02;;
55497;SDS011;41357;52.806;18.268;2023-12-04T08:02:45;31.90;;;12.05;;
55497;SDS011;41357;52.806;18.268;2023-12-04T08:05:11;55.28;;;14.85;;
55497;SDS011;41357;52.806;18.268;2023-12-04T08:07:38;34.50;;;14.52;;
55497;SDS011;41357;52.806;18.268;2023-12-04T08:10:05;42.83;;;15.95;;
55497;SDS011;41357;52.806;18.268;2023-12-04T08:12:32;49.35;;;15.13;;
55497;SDS011;41357;52.806;18.268;2023-12-04T08:14:58;38.05;;;14.15;;
55497;SDS011;41357;52.806;18.268;2023-12-04T08:17:25;37.22;;;16.48;;
55497;SDS011;41357;52.806;18.268;2023-12-04T08:19:51;35.65;;;12.55;;
55497;SDS011;41357;52.806;18.268;2023-12-04T08:22:17;43.50;;;14.35;;
55497;SDS011;41357;52.806;18.268;2023-12-04T08:24:44;36.80;;;13.80;;
55497;SDS011;41357;52.806;18.268;2023-12-04T08:27:10;39.83;;;14.65;;
55497;SDS011;41357;52.806;18.268;2023-12-04T08:29:36;55.15;;;19.13;;
55497;SDS011;41357;52.806;18.268;2023-12-04T08:32:05;58.63;;;17.70;;
55497;SDS011;41357;52.806;18.268;2023-12-04T08:34:31;48.38;;;16.65;;
55497;SDS011;41357;52.806;18.268;2023-12-04T08:36:58;45.83;;;17.98;;
55497;SDS011;41357;52.806;18.268;2023-12-04T08:39:24;100.18;;;37.47;;
55497;SDS011;41357;52.806;18.268;2023-12-04T08:41:50;49.20;;;19.60;;
55497;SDS011;41357;52.806;18.268;2023-12-04T08:44:16;49.42;;;19.50;;
55497;SDS011;41357;52.806;18.268;2023-12-04T08:46:43;57.38;;;18.40;;
55497;SDS011;41357;52.806;18.268;2023-12-04T08:49:10;39.45;;;15.43;;
55497;SDS011;41357;52.806;18.268;2023-12-04T08:51:36;50.45;;;18.45;;
55497;SDS011;41357;52.806;18.268;2023-12-04T08:54:02;46.60;;;16.75;;
55497;SDS011;41357;52.806;18.268;2023-12-04T08:56:28;49.42;;;17.98;;
55497;SDS011;41357;52.806;18.268;2023-12-04T08:58:55;53.42;;;16.70;;
55497;SDS011;41357;52.806;18.268;2023-12-04T09:01:22;40.05;;;16.73;;
55497;SDS011;41357;52.806;18.268;2023-12-04T09:03:48;50.55;;;18.60;;
55497;SDS011;41357;52.806;18.268;2023-12-04T09:06:15;44.08;;;16.58;;
55497;SDS011;41357;52.806;18.268;2023-12-04T09:08:42;50.70;;;18.67;;
55497;SDS011;41357;52.806;18.268;2023-12-04T09:11:08;64.15;;;28.23;;
55497;SDS011;41357;52.806;18.268;2023-12-04T09:13:34;47.80;;;19.95;;
55497;SDS011;41357;52.806;18.268;2023-12-04T09:16:00;42.72;;;18.92;;
55497;SDS011;41357;52.806;18.268;2023-12-04T09:18:26;58.40;;;23.02;;
55497;SDS011;41357;52.806;18.268;2023-12-04T09:20:52;54.65;;;20.58;;
55497;SDS011;41357;52.806;18.268;2023-12-04T09:23:19;46.20;;;17.08;;
55497;SDS011;41357;52.806;18.268;2023-12-04T09:25:45;45.22;;;15.75;;
55497;SDS011;41357;52.806;18.268;2023-12-04T09:28:11;49.60;;;18.23;;
55497;SDS011;41357;52.806;18.268;2023-12-04T09:30:37;49.17;;;18.05;;
55497;SDS011;41357;52.806;18.268;2023-12-04T09:33:04;49.38;;;18.33;;
55497;SDS011;41357;52.806;18.268;2023-12-04T09:35:31;37.70;;;15.48;;
55497;SDS011;41357;52.806;18.268;2023-12-04T09:37:58;43.85;;;17.85;;
55497;SDS011;41357;52.806;18.268;2023-12-04T09:40:24;43.63;;;17.75;;
55497;SDS011;41357;52.806;18.268;2023-12-04T09:42:51;45.67;;;16.05;;
55497;SDS011;41357;52.806;18.268;2023-12-04T09:45:18;44.08;;;16.08;;
55497;SDS011;41357;52.806;18.268;2023-12-04T09:47:45;44.25;;;16.65;;
55497;SDS011;41357;52.806;18.268;2023-12-04T09:50:11;38.08;;;15.82;;
55497;SDS011;41357;52.806;18.268;2023-12-04T09:52:37;38.03;;;15.38;;
55497;SDS011;41357;52.806;18.268;2023-12-04T09:55:04;51.40;;;20.27;;
55497;SDS011;41357;52.806;18.268;2023-12-04T09:57:30;45.53;;;19.73;;
55497;SDS011;41357;52.806;18.268;2023-12-04T09:59:57;52.85;;;19.85;;
55497;SDS011;41357;52.806;18.268;2023-12-04T10:02:24;47.13;;;18.13;;
55497;SDS011;41357;52.806;18.268;2023-12-04T10:04:50;59.08;;;19.42;;
55497;SDS011;41357;52.806;18.268;2023-12-04T10:07:17;49.40;;;19.55;;
55497;SDS011;41357;52.806;18.268;2023-12-04T10:09:43;50.25;;;19.55;;
55497;SDS011;41357;52.806;18.268;2023-12-04T10:12:09;44.10;;;17.27;;
55497;SDS011;41357;52.806;18.268;2023-12-04T10:14:35;60.35;;;20.27;;
55497;SDS011;41357;52.806;18.268;2023-12-04T10:17:23;39.88;;;18.48;;
55497;SDS011;41357;52.806;18.268;2023-12-04T10:19:48;37.13;;;15.13;;
55497;SDS011;41357;52.806;18.268;2023-12-04T10:22:32;37.78;;;12.13;;
55497;SDS011;41357;52.806;18.268;2023-12-04T10:24:58;40.15;;;16.10;;
55497;SDS011;41357;52.806;18.268;2023-12-04T10:27:26;42.30;;;17.38;;
55497;SDS011;41357;52.806;18.268;2023-12-04T10:29:52;35.58;;;16.05;;
55497;SDS011;41357;52.806;18.268;2023-12-04T10:32:19;42.88;;;14.30;;
55497;SDS011;41357;52.806;18.268;2023-12-04T10:34:48;50.83;;;17.58;;
55497;SDS011;41357;52.806;18.268;2023-12-04T10:37:14;42.80;;;17.02;;
55497;SDS011;41357;52.806;18.268;2023-12-04T10:39:48;48.28;;;19.73;;
55497;SDS011;41357;52.806;18.268;2023-12-04T10:44:55;39.75;;;16.88;;
55497;SDS011;41357;52.806;18.268;2023-12-04T10:47:25;42.25;;;18.02;;
55497;SDS011;41357;52.806;18.268;2023-12-04T10:49:52;31.38;;;13.63;;
55497;SDS011;41357;52.806;18.268;2023-12-04T10:52:18;46.05;;;19.00;;
55497;SDS011;41357;52.806;18.268;2023-12-04T10:54:47;53.17;;;20.83;;
55497;SDS011;41357;52.806;18.268;2023-12-04T10:57:16;44.50;;;19.10;;
55497;SDS011;41357;52.806;18.268;2023-12-04T10:59:46;48.22;;;18.08;;
55497;SDS011;41357;52.806;18.268;2023-12-04T11:02:14;39.70;;;18.23;;
55497;SDS011;41357;52.806;18.268;2023-12-04T11:04:45;47.50;;;18.70;;
55497;SDS011;41357;52.806;18.268;2023-12-04T11:07:13;44.25;;;17.73;;
55497;SDS011;41357;52.806;18.268;2023-12-04T11:09:39;44.92;;;15.48;;
55497;SDS011;41357;52.806;18.268;2023-12-04T11:12:07;46.70;;;17.52;;
55497;SDS011;41357;52.806;18.268;2023-12-04T11:14:40;36.75;;;14.95;;
55497;SDS011;41357;52.806;18.268;2023-12-04T11:17:08;46.17;;;16.10;;
55497;SDS011;41357;52.806;18.268;2023-12-04T11:19:43;37.05;;;15.38;;
55497;SDS011;41357;52.806;18.268;2023-12-04T11:22:12;40.33;;;14.73;;
55497;SDS011;41357;52.806;18.268;2023-12-04T11:24:40;50.58;;;17.98;;
55497;SDS011;41357;52.806;18.268;2023-12-04T11:27:07;41.25;;;17.92;;
55497;SDS011;41357;52.806;18.268;2023-12-04T11:29:35;46.33;;;17.95;;
55497;SDS011;41357;52.806;18.268;2023-12-04T11:32:04;49.38;;;17.85;;
55497;SDS011;41357;52.806;18.268;2023-12-04T11:34:31;44.38;;;17.75;;
55497;SDS011;41357;52.806;18.268;2023-12-04T11:36:57;46.50;;;16.90;;
55497;SDS011;41357;52.806;18.268;2023-12-04T11:39:25;45.33;;;19.00;;
55497;SDS011;41357;52.806;18.268;2023-12-04T11:41:51;38.47;;;16.23;;
55497;SDS011;41357;52.806;18.268;2023-12-04T11:44:17;29.50;;;11.95;;
55497;SDS011;41357;52.806;18.268;2023-12-04T11:49:28;47.65;;;19.05;;
55497;SDS011;41357;52.806;18.268;2023-12-04T11:52:03;69.50;;;22.63;;
55497;SDS011;41357;52.806;18.268;2023-12-04T11:54:36;47.47;;;17.30;;
55497;SDS011;41357;52.806;18.268;2023-12-04T11:59:42;46.33;;;17.73;;
55497;SDS011;41357;52.806;18.268;2023-12-04T12:02:08;50.97;;;19.23;;
55497;SDS011;41357;52.806;18.268;2023-12-04T12:04:36;43.85;;;18.73;;
55497;SDS011;41357;52.806;18.268;2023-12-04T12:07:02;48.33;;;19.10;;
55497;SDS011;41357;52.806;18.268;2023-12-04T12:09:31;45.05;;;19.95;;
55497;SDS011;41357;52.806;18.268;2023-12-04T12:12:01;51.72;;;20.15;;
55497;SDS011;41357;52.806;18.268;2023-12-04T12:14:28;47.97;;;20.48;;
55497;SDS011;41357;52.806;18.268;2023-12-04T12:16:54;35.17;;;15.95;;
55497;SDS011;41357;52.806;18.268;2023-12-04T12:19:21;44.50;;;19.08;;
55497;SDS011;41357;52.806;18.268;2023-12-04T12:21:50;44.97;;;17.70;;
55497;SDS011;41357;52.806;18.268;2023-12-04T12:24:17;44.30;;;19.98;;
55497;SDS011;41357;52.806;18.268;2023-12-04T12:26:44;36.63;;;15.55;;
55497;SDS011;41357;52.806;18.268;2023-12-04T12:29:10;46.83;;;19.67;;
55497;SDS011;41357;52.806;18.268;2023-12-04T12:31:37;55.30;;;20.30;;
55497;SDS011;41357;52.806;18.268;2023-12-04T12:34:04;49.00;;;19.52;;
55497;SDS011;41357;52.806;18.268;2023-12-04T12:36:30;31.95;;;14.32;;
55497;SDS011;41357;52.806;18.268;2023-12-04T12:38:59;46.55;;;19.08;;
55497;SDS011;41357;52.806;18.268;2023-12-04T12:41:28;48.33;;;18.73;;
55497;SDS011;41357;52.806;18.268;2023-12-04T12:43:55;41.92;;;17.80;;
55497;SDS011;41357;52.806;18.268;2023-12-04T12:46:21;43.03;;;17.67;;
55497;SDS011;41357;52.806;18.268;2023-12-04T12:48:47;41.50;;;17.95;;
55497;SDS011;41357;52.806;18.268;2023-12-04T12:51:14;54.53;;;21.55;;
55497;SDS011;41357;52.806;18.268;2023-12-04T12:53:40;48.80;;;19.90;;
55497;SDS011;41357;52.806;18.268;2023-12-04T12:56:07;71.35;;;26.10;;
55497;SDS011;41357;52.806;18.268;2023-12-04T12:58:33;41.88;;;16.33;;
55497;SDS011;41357;52.806;18.268;2023-12-04T13:01:00;46.38;;;18.73;;
55497;SDS011;41357;52.806;18.268;2023-12-04T13:03:27;44.80;;;19.15;;
55497;SDS011;41357;52.806;18.268;2023-12-04T13:05:54;46.97;;;20.50;;
55497;SDS011;41357;52.806;18.268;2023-12-04T13:08:20;35.97;;;17.98;;
55497;SDS011;41357;52.806;18.268;2023-12-04T13:10:46;39.70;;;19.15;;
55497;SDS011;41357;52.806;18.268;2023-12-04T13:13:13;54.42;;;17.95;;
55497;SDS011;41357;52.806;18.268;2023-12-04T13:15:42;34.17;;;15.25;;
55497;SDS011;41357;52.806;18.268;2023-12-04T13:18:09;41.47;;;14.80;;
55497;SDS011;41357;52.806;18.268;2023-12-04T13:20:35;32.58;;;14.30;;
55497;SDS011;41357;52.806;18.268;2023-12-04T13:23:02;42.45;;;18.30;;
55497;SDS011;41357;52.806;18.268;2023-12-04T13:25:28;39.22;;;17.77;;
55497;SDS011;41357;52.806;18.268;2023-12-04T13:27:54;36.63;;;14.13;;
55497;SDS011;41357;52.806;18.268;2023-12-04T13:30:20;33.03;;;14.25;;
55497;SDS011;41357;52.806;18.268;2023-12-04T13:32:46;35.42;;;14.20;;
55497;SDS011;41357;52.806;18.268;2023-12-04T13:35:15;40.70;;;16.70;;
55497;SDS011;41357;52.806;18.268;2023-12-04T13:37:42;38.42;;;14.85;;
55497;SDS011;41357;52.806;18.268;2023-12-04T13:40:08;38.97;;;16.10;;
55497;SDS011;41357;52.806;18.268;2023-12-04T13:42:40;35.55;;;14.40;;
55497;SDS011;41357;52.806;18.268;2023-12-04T13:45:21;36.08;;;15.05;;
55497;SDS011;41357;52.806;18.268;2023-12-04T13:47:48;38.30;;;15.57;;
55497;SDS011;41357;52.806;18.268;2023-12-04T13:50:14;36.17;;;15.02;;
55497;SDS011;41357;52.806;18.268;2023-12-04T13:52:41;39.83;;;17.15;;
55497;SDS011;41357;52.806;18.268;2023-12-04T13:55:08;36.67;;;16.02;;
55497;SDS011;41357;52.806;18.268;2023-12-04T13:57:59;45.22;;;15.68;;
55497;SDS011;41357;52.806;18.268;2023-12-04T14:00:35;57.03;;;19.25;;
55497;SDS011;41357;52.806;18.268;2023-12-04T14:03:02;66.18;;;22.35;;
55497;SDS011;41357;52.806;18.268;2023-12-04T14:05:32;52.28;;;18.83;;
55497;SDS011;41357;52.806;18.268;2023-12-04T14:07:59;61.17;;;18.65;;
55497;SDS011;41357;52.806;18.268;2023-12-04T14:10:26;49.80;;;19.95;;
55497;SDS011;41357;52.806;18.268;2023-12-04T14:12:52;64.57;;;25.00;;
55497;SDS011;41357;52.806;18.268;2023-12-04T14:15:19;61.22;;;27.33;;
55497;SDS011;41357;52.806;18.268;2023-12-04T14:17:45;75.25;;;30.23;;
55497;SDS011;41357;52.806;18.268;2023-12-04T14:20:14;118.70;;;43.08;;